Time;durP1;ratioP1;P1;durP2;ratioP2;P2;SDS_P1;SDS_P2;PMS_P1;PMS_P2;Temp;Humidity;BMP_temperature;BMP_pressure;BME280_temperature;BME280_humidity;BME280_pressure;Samples;Min_cycle;Max_cycle;Signal;HPM_P1;HPM_P2
2024/01/21 00:04:36;;;;;;;34.33;11.30;;;-0.40;99.90;;;;;;10057853;28;20128;-67
2024/01/21 00:09:28;;;;;;;26.05;11.70;;;-0.30;99.90;;;;;;10057630;28;20116;-66
2024/01/21 00:14:19;;;;;;;30.90;11.48;;;-0.30;99.90;;;;;;10059612;28;20053;-68
2024/01/21 00:19:09;;;;;;;24.65;9.52;;;-0.30;99.90;;;;;;10057407;28;20167;-66
2024/01/21 00:24:00;;;;;;;27.00;11.38;;;-0.40;99.90;;;;;;10056850;28;20090;-67
2024/01/21 00:28:51;;;;;;;27.77;10.70;;;-0.40;99.90;;;;;;10057284;28;20033;-67
2024/01/21 00:33:41;;;;;;;31.50;10.75;;;-0.40;99.90;;;;;;10055916;28;20041;-67
2024/01/21 00:38:32;;;;;;;31.00;10.18;;;-0.30;99.90;;;;;;10057316;28;20048;-67
2024/01/21 00:43:22;;;;;;;31.23;9.90;;;-0.40;99.90;;;;;;10056194;28;20026;-68
2024/01/21 00:48:13;;;;;;;25.45;9.90;;;-0.50;99.90;;;;;;10057432;28;20037;-67
2024/01/21 00:53:04;;;;;;;25.08;9.60;;;-0.40;99.90;;;;;;10056846;28;20037;-67
2024/01/21 00:57:54;;;;;;;23.48;9.98;;;-0.40;99.90;;;;;;10056055;28;20847;-66
2024/01/21 01:02:45;;;;;;;33.33;10.80;;;-0.30;99.90;;;;;;10055467;28;20037;-67
2024/01/21 01:07:36;;;;;;;19.58;8.57;;;-0.30;99.90;;;;;;10056299;28;20068;-66
2024/01/21 01:12:26;;;;;;;23.10;9.35;;;-0.40;99.90;;;;;;10055649;28;20116;-66
2024/01/21 01:17:17;;;;;;;23.02;9.25;;;-0.40;99.90;;;;;;10055784;28;20025;-66
2024/01/21 01:22:09;;;;;;;23.30;9.50;;;-0.40;99.90;;;;;;10056275;28;20631;-66
2024/01/21 01:27:00;;;;;;;22.20;8.27;;;-0.40;99.90;;;;;;10055474;28;20038;-67
2024/01/21 01:31:51;;;;;;;31.33;10.90;;;-0.50;99.90;;;;;;10056489;28;20044;-67
2024/01/21 01:36:41;;;;;;;21.42;9.43;;;-0.60;99.90;;;;;;10055618;28;20033;-69
2024/01/21 01:41:33;;;;;;;24.85;9.60;;;-0.60;99.90;;;;;;10044454;28;20120;-67
2024/01/21 01:46:23;;;;;;;22.13;9.20;;;-0.60;99.90;;;;;;10053182;28;20609;-65
2024/01/21 01:51:14;;;;;;;20.92;8.73;;;-0.70;99.90;;;;;;10054952;28;20087;-65
2024/01/21 01:56:05;;;;;;;21.65;8.45;;;-0.70;99.90;;;;;;10054444;28;20469;-65
2024/01/21 02:00:57;;;;;;;18.40;7.82;;;-0.70;99.90;;;;;;10053151;28;20045;-67
2024/01/21 02:05:48;;;;;;;22.23;8.95;;;-0.70;99.90;;;;;;10054407;28;20069;-66
2024/01/21 02:10:38;;;;;;;19.02;7.47;;;-0.70;99.90;;;;;;10054989;28;20017;-68
2024/01/21 02:15:29;;;;;;;22.80;8.95;;;-0.80;99.90;;;;;;10055313;28;20029;-66
2024/01/21 02:20:20;;;;;;;16.23;7.70;;;-0.80;99.90;;;;;;10061954;28;20045;-67
2024/01/21 02:25:11;;;;;;;18.60;8.07;;;-0.90;99.90;;;;;;10061564;28;20052;-67
2024/01/21 02:30:02;;;;;;;22.13;8.43;;;-0.90;99.90;;;;;;10061263;28;20018;-67
2024/01/21 02:34:53;;;;;;;19.10;8.15;;;-0.80;99.90;;;;;;10061588;28;20041;-67
2024/01/21 02:39:44;;;;;;;21.73;7.60;;;-0.90;99.90;;;;;;10061082;28;20419;-67
2024/01/21 02:44:34;;;;;;;17.75;8.18;;;-0.90;99.90;;;;;;10060884;28;20052;-67
2024/01/21 02:49:28;;;;;;;23.13;7.93;;;-0.90;99.90;;;;;;10065272;28;20056;-67
2024/01/21 02:54:19;;;;;;;17.05;7.38;;;-0.90;99.90;;;;;;10060916;28;20045;-68
2024/01/21 02:59:09;;;;;;;22.48;7.80;;;-0.90;99.90;;;;;;10060292;28;20035;-65
2024/01/21 03:04:00;;;;;;;15.48;7.60;;;-0.90;99.90;;;;;;10062645;28;20033;-67
2024/01/21 03:08:51;;;;;;;18.50;7.82;;;-0.90;99.90;;;;;;10060243;28;20103;-67
2024/01/21 03:13:41;;;;;;;19.10;7.53;;;-0.90;99.90;;;;;;10060544;28;20029;-68
2024/01/21 03:18:32;;;;;;;22.55;8.90;;;-0.90;99.90;;;;;;10059751;28;20048;-66
2024/01/21 03:23:23;;;;;;;18.55;7.72;;;-1.00;99.90;;;;;;10058101;28;20794;-66
2024/01/21 03:28:13;;;;;;;21.95;8.23;;;-1.00;99.90;;;;;;10059473;28;20056;-66
2024/01/21 03:33:04;;;;;;;19.25;7.18;;;-1.00;99.90;;;;;;10057079;28;20038;-66
2024/01/21 03:37:56;;;;;;;19.85;8.25;;;-1.00;99.90;;;;;;10060004;28;20057;-65
2024/01/21 03:42:47;;;;;;;17.60;7.57;;;-1.00;99.90;;;;;;10059244;28;20052;-65
2024/01/21 03:47:38;;;;;;;18.85;7.35;;;-0.90;99.90;;;;;;10059335;28;20045;-66
2024/01/21 03:52:28;;;;;;;17.30;7.22;;;-0.90;99.90;;;;;;10067659;28;20029;-66
2024/01/21 03:57:19;;;;;;;17.27;7.32;;;-1.00;99.90;;;;;;10059343;28;20121;-65
2024/01/21 04:02:10;;;;;;;16.33;7.45;;;-1.00;99.90;;;;;;10058589;28;20029;-66
2024/01/21 04:07:00;;;;;;;22.52;7.93;;;-1.00;99.90;;;;;;10057015;28;20029;-67
2024/01/21 04:11:51;;;;;;;15.90;7.22;;;-1.00;99.90;;;;;;10057618;28;20435;-67
2024/01/21 04:16:42;;;;;;;20.80;9.30;;;-1.00;99.90;;;;;;10057905;28;20036;-66
2024/01/21 04:21:32;;;;;;;19.45;7.75;;;-1.00;99.90;;;;;;10057147;28;20613;-65
2024/01/21 04:26:23;;;;;;;19.77;8.05;;;-1.00;99.90;;;;;;10051892;28;20119;-68
2024/01/21 04:31:14;;;;;;;17.42;7.13;;;-1.00;99.90;;;;;;10056026;28;20025;-65
2024/01/21 04:36:05;;;;;;;16.42;7.53;;;-1.00;99.90;;;;;;10056351;28;20029;-68
2024/01/21 04:40:55;;;;;;;18.80;7.63;;;-1.00;99.90;;;;;;10055275;28;20021;-65
2024/01/21 04:45:46;;;;;;;15.93;7.03;;;-1.00;99.90;;;;;;10056583;28;20431;-64
2024/01/21 04:50:37;;;;;;;17.80;7.03;;;-1.00;99.90;;;;;;10056129;28;20032;-64
2024/01/21 04:55:28;;;;;;;18.60;6.45;;;-1.00;99.90;;;;;;10055746;28;20044;-65
2024/01/21 05:00:19;;;;;;;20.83;8.48;;;-1.00;99.90;;;;;;10055604;28;20048;-67
2024/01/21 05:05:09;;;;;;;14.40;7.03;;;-1.00;99.90;;;;;;10055915;28;20507;-66
2024/01/21 05:10:00;;;;;;;17.40;7.28;;;-0.90;99.90;;;;;;10055376;28;20028;-66
2024/01/21 05:14:51;;;;;;;14.63;6.70;;;-0.90;99.90;;;;;;10056350;28;20043;-66
2024/01/21 05:19:41;;;;;;;14.30;7.07;;;-0.90;99.90;;;;;;10055091;28;20033;-67
2024/01/21 05:24:36;;;;;;;19.60;7.40;;;-0.90;99.90;;;;;;10054902;28;20053;-66
2024/01/21 05:29:26;;;;;;;18.10;7.25;;;-0.90;99.90;;;;;;10054130;28;20388;-65
2024/01/21 05:34:17;;;;;;;13.25;6.05;;;-0.90;99.90;;;;;;10060248;28;20171;-66
2024/01/21 05:39:07;;;;;;;16.38;7.13;;;-0.90;99.90;;;;;;10055397;28;20116;-65
2024/01/21 05:43:58;;;;;;;13.13;5.85;;;-0.90;99.90;;;;;;10055365;28;20095;-64
2024/01/21 05:48:49;;;;;;;18.00;6.82;;;-1.00;99.90;;;;;;10056260;28;20044;-66
2024/01/21 05:53:41;;;;;;;18.45;7.47;;;-1.00;99.90;;;;;;10063387;28;20026;-66
2024/01/21 05:58:32;;;;;;;16.58;6.05;;;-1.00;99.90;;;;;;10058661;28;20021;-66
2024/01/21 06:03:23;;;;;;;14.13;6.35;;;-1.00;99.90;;;;;;10061141;28;20037;-65
2024/01/21 06:08:13;;;;;;;11.80;5.85;;;-0.90;99.90;;;;;;10062272;28;20041;-65
2024/01/21 06:13:04;;;;;;;10.40;6.15;;;-0.90;99.90;;;;;;10061981;28;20029;-68
2024/01/21 06:17:54;;;;;;;12.32;6.13;;;-1.00;99.90;;;;;;10065418;28;20057;-66
2024/01/21 06:22:45;;;;;;;11.73;5.75;;;-1.00;99.90;;;;;;10061368;28;20057;-68
2024/01/21 06:27:36;;;;;;;11.57;5.63;;;-0.90;99.90;;;;;;10061907;28;20414;-66
2024/01/21 06:32:26;;;;;;;10.38;4.97;;;-0.90;99.90;;;;;;10060937;28;20510;-66
2024/01/21 06:37:17;;;;;;;14.30;6.95;;;-0.90;99.90;;;;;;10060098;28;20041;-66
2024/01/21 06:42:07;;;;;;;14.95;6.00;;;-0.90;99.90;;;;;;10061007;28;20103;-66
2024/01/21 06:46:58;;;;;;;14.27;5.95;;;-0.90;99.90;;;;;;10055553;28;20534;-66
2024/01/21 06:51:54;;;;;;;9.95;5.80;;;-0.90;99.90;;;;;;10059625;28;20125;-66
2024/01/21 06:56:44;;;;;;;;;;;-0.90;99.90;;;;;;10059423;28;20107;-65
2024/01/21 07:01:35;;;;;;;13.35;4.65;;;-0.90;99.90;;;;;;10059423;28;19953;-66
2024/01/21 07:06:26;;;;;;;13.63;6.03;;;-0.90;99.90;;;;;;10064525;28;20037;-66
2024/01/21 07:11:16;;;;;;;14.85;7.30;;;-0.90;99.90;;;;;;10060185;28;20029;-64
2024/01/21 07:16:07;;;;;;;13.65;6.47;;;-0.90;99.90;;;;;;10058152;28;20068;-65
2024/01/21 07:20:58;;;;;;;11.38;5.45;;;-0.90;99.90;;;;;;10059167;28;20072;-65
2024/01/21 07:25:49;;;;;;;11.25;5.40;;;-1.00;99.90;;;;;;10059227;28;20501;-65
2024/01/21 07:30:39;;;;;;;12.38;5.75;;;-0.90;99.90;;;;;;10057232;28;20033;-65
2024/01/21 07:35:31;;;;;;;12.43;5.55;;;-0.90;99.90;;;;;;10058973;28;20643;-64
2024/01/21 07:40:22;;;;;;;13.60;6.45;;;-1.00;99.90;;;;;;10058609;28;20021;-64
2024/01/21 07:45:12;;;;;;;12.70;6.00;;;-0.90;99.90;;;;;;10057895;28;20388;-66
2024/01/21 07:50:04;;;;;;;12.38;5.60;;;-0.90;99.90;;;;;;10058616;28;20034;-65
2024/01/21 07:54:55;;;;;;;10.73;5.88;;;-0.90;99.90;;;;;;10059052;28;20030;-66
2024/01/21 07:59:45;;;;;;;15.27;5.88;;;-0.90;99.90;;;;;;10057877;28;20040;-65
2024/01/21 08:04:36;;;;;;;14.60;6.72;;;-0.90;99.90;;;;;;10059935;28;20305;-66
2024/01/21 08:09:28;;;;;;;11.98;5.82;;;-0.80;99.90;;;;;;10057718;28;20091;-66
2024/01/21 08:14:19;;;;;;;14.15;6.25;;;-0.80;99.90;;;;;;10056423;28;20041;-64
2024/01/21 08:19:09;;;;;;;12.95;6.50;;;-0.80;99.90;;;;;;10058033;28;21593;-66
2024/01/21 08:24:00;;;;;;;13.93;6.22;;;-0.80;99.90;;;;;;10058014;28;20037;-65
2024/01/21 08:28:51;;;;;;;14.43;7.18;;;-0.70;99.90;;;;;;10055432;28;20029;-65
2024/01/21 08:33:41;;;;;;;14.30;6.97;;;-0.70;99.90;;;;;;10055650;28;20037;-66
2024/01/21 08:38:32;;;;;;;17.17;7.00;;;-0.60;99.90;;;;;;10056522;28;20029;-66
2024/01/21 08:43:23;;;;;;;12.65;5.68;;;-0.60;99.90;;;;;;10056213;28;20038;-65
2024/01/21 08:48:13;;;;;;;17.65;6.75;;;-0.50;99.90;;;;;;10055750;28;20049;-65
2024/01/21 08:53:04;;;;;;;12.55;6.22;;;-0.50;99.90;;;;;;10056569;28;20075;-65
2024/01/21 08:57:55;;;;;;;13.52;6.43;;;-0.40;99.90;;;;;;10047830;28;20022;-65
2024/01/21 09:02:46;;;;;;;11.30;5.60;;;-0.40;99.90;;;;;;10055569;28;20072;-65
2024/01/21 09:07:36;;;;;;;9.82;5.85;;;-0.30;99.90;;;;;;10056169;28;20041;-65
2024/01/21 09:12:27;;;;;;;13.43;5.72;;;-0.20;99.90;;;;;;10055851;28;20216;-66
2024/01/21 09:17:18;;;;;;;12.32;6.50;;;-0.20;99.90;;;;;;10055688;28;20026;-65
2024/01/21 09:22:08;;;;;;;9.48;5.20;;;-0.10;99.90;;;;;;10055112;28;20041;-65
2024/01/21 09:26:59;;;;;;;11.60;5.15;;;-0.10;99.90;;;;;;10054242;28;20044;-66
2024/01/21 09:31:57;;;;;;;11.73;5.82;;;0.10;99.90;;;;;;10053443;28;20026;-66
2024/01/21 09:36:48;;;;;;;10.38;5.75;;;0.10;99.90;;;;;;10055138;28;20472;-66
2024/01/21 09:41:50;;;;;;;13.48;5.88;;;0.20;99.90;;;;;;10055242;28;20701;-66
2024/01/21 09:46:41;;;;;;;10.73;5.32;;;0.30;99.90;;;;;;10055373;28;20033;-64
2024/01/21 09:51:32;;;;;;;11.40;5.15;;;0.40;99.90;;;;;;10049266;28;20014;-65
2024/01/21 09:56:23;;;;;;;11.38;6.18;;;0.40;99.90;;;;;;10050554;28;20033;-66
2024/01/21 10:01:15;;;;;;;12.82;5.35;;;0.40;99.90;;;;;;10054299;28;20104;-64
2024/01/21 10:06:07;;;;;;;14.23;6.65;;;0.50;99.90;;;;;;10054039;28;20046;-65
2024/01/21 10:11:03;;;;;;;10.65;6.35;;;0.60;99.90;;;;;;10054355;28;20144;-65
2024/01/21 10:15:54;;;;;;;9.68;5.05;;;0.70;99.90;;;;;;10054453;28;20403;-65
2024/01/21 10:20:44;;;;;;;11.85;5.95;;;0.80;99.90;;;;;;10054155;28;20071;-65
2024/01/21 10:25:35;;;;;;;9.70;4.93;;;0.80;99.90;;;;;;10054025;28;20099;-64
2024/01/21 10:30:26;;;;;;;8.32;4.68;;;0.80;99.90;;;;;;10053560;28;20060;-65
2024/01/21 10:35:16;;;;;;;9.85;5.10;;;0.80;99.90;;;;;;10054806;28;20442;-66
2024/01/21 10:40:09;;;;;;;11.45;4.72;;;0.80;99.90;;;;;;10061338;28;20064;-66
2024/01/21 10:45:01;;;;;;;12.02;5.22;;;0.90;99.90;;;;;;10061299;28;20132;-66
2024/01/21 10:49:52;;;;;;;12.05;5.50;;;0.90;99.90;;;;;;10060707;28;20527;-65
2024/01/21 10:54:44;;;;;;;12.65;5.95;;;0.90;99.90;;;;;;10059429;28;20033;-65
2024/01/21 10:59:38;;;;;;;8.75;5.25;;;0.90;99.90;;;;;;10060519;28;20040;-65
2024/01/21 11:04:29;;;;;;;9.57;5.22;;;0.90;99.90;;;;;;10055058;28;20045;-67
2024/01/21 11:09:26;;;;;;;8.35;5.00;;;0.90;99.90;;;;;;10060021;28;20557;-65
2024/01/21 11:14:33;;;;;;;11.90;6.03;;;0.90;99.90;;;;;;10060393;28;20061;-66
2024/01/21 11:19:24;;;;;;;11.48;6.25;;;0.90;99.90;;;;;;10059341;28;20593;-66
2024/01/21 11:24:14;;;;;;;10.75;5.40;;;1.00;99.90;;;;;;10058270;28;20056;-64
2024/01/21 11:29:26;;;;;;;8.55;5.13;;;1.00;99.90;;;;;;10059631;28;20025;-64
2024/01/21 11:34:17;;;;;;;12.85;5.57;;;1.10;99.90;;;;;;10052088;28;20602;-67
2024/01/21 11:39:08;;;;;;;11.55;5.50;;;1.20;99.90;;;;;;10063497;28;20052;-66
2024/01/21 11:44:08;;;;;;;8.40;4.68;;;1.30;99.90;;;;;;10058958;28;20411;-65
2024/01/21 11:49:01;;;;;;;10.60;5.22;;;1.40;99.90;;;;;;10059014;28;20044;-65
2024/01/21 11:53:53;;;;;;;10.15;5.07;;;1.50;99.90;;;;;;10058586;28;20029;-66
2024/01/21 11:58:43;;;;;;;9.23;5.45;;;1.60;99.90;;;;;;10058009;28;20025;-68
2024/01/21 12:03:34;;;;;;;10.18;4.30;;;1.60;99.90;;;;;;10060596;28;20022;-65
2024/01/21 12:08:25;;;;;;;7.65;4.90;;;1.70;99.90;;;;;;10057595;28;20038;-66
2024/01/21 12:13:15;;;;;;;5.38;3.53;;;1.80;99.90;;;;;;10057414;28;20375;-66
2024/01/21 12:18:06;;;;;;;4.60;3.10;;;1.90;99.90;;;;;;10057479;28;20051;-66
2024/01/21 12:22:57;;;;;;;7.15;3.30;;;1.90;99.90;;;;;;10057654;28;20514;-65
2024/01/21 12:27:55;;;;;;;7.00;4.20;;;1.90;99.90;;;;;;10056248;28;20128;-66
2024/01/21 12:32:46;;;;;;;6.65;3.53;;;2.00;99.90;;;;;;10056490;28;20032;-65
2024/01/21 12:37:37;;;;;;;5.88;3.63;;;2.10;99.90;;;;;;10055928;28;20029;-65
2024/01/21 12:42:27;;;;;;;6.95;3.78;;;2.10;99.90;;;;;;10059097;28;20537;-65
2024/01/21 12:47:19;;;;;;;9.98;3.97;;;2.20;99.90;;;;;;10056190;28;20045;-65
2024/01/21 12:52:10;;;;;;;6.75;3.33;;;2.30;99.90;;;;;;10054931;28;20124;-65
2024/01/21 12:57:03;;;;;;;5.88;3.60;;;2.30;99.90;;;;;;10056170;28;20037;-65
2024/01/21 13:01:53;;;;;;;4.20;3.00;;;2.40;99.90;;;;;;10054927;28;20017;-67
2024/01/21 13:06:44;;;;;;;5.03;3.10;;;2.60;99.90;;;;;;10055253;28;20080;-66
2024/01/21 13:11:35;;;;;;;5.60;3.17;;;2.70;99.90;;;;;;10063937;28;20434;-65
2024/01/21 13:16:25;;;;;;;5.28;3.03;;;2.70;99.90;;;;;;10056242;28;20045;-65
2024/01/21 13:21:16;;;;;;;7.38;3.22;;;2.70;99.90;;;;;;10054966;28;20060;-66
2024/01/21 13:26:07;;;;;;;6.78;3.45;;;2.70;99.90;;;;;;10055974;28;20526;-65
2024/01/21 13:30:58;;;;;;;5.82;2.88;;;2.80;99.90;;;;;;10056477;28;20030;-66
2024/01/21 13:35:50;;;;;;;6.38;3.55;;;2.90;99.90;;;;;;10056028;28;20040;-65
2024/01/21 13:40:41;;;;;;;5.68;2.58;;;3.00;99.90;;;;;;10054901;28;20387;-66
2024/01/21 13:45:32;;;;;;;5.95;2.58;;;3.10;99.90;;;;;;10042841;28;20052;-65
2024/01/21 13:50:23;;;;;;;4.45;2.65;;;3.10;99.90;;;;;;10055076;28;20104;-65
2024/01/21 13:55:13;;;;;;;4.35;2.30;;;3.10;99.90;;;;;;10055513;28;20033;-66
2024/01/21 14:00:05;;;;;;;5.15;2.15;;;3.20;99.90;;;;;;10054668;28;20356;-65
2024/01/21 14:04:56;;;;;;;4.93;2.60;;;3.30;99.90;;;;;;10054194;28;20053;-66
2024/01/21 14:09:46;;;;;;;4.85;1.88;;;3.40;99.90;;;;;;10049348;28;20108;-66
2024/01/21 14:14:37;;;;;;;3.60;1.80;;;3.50;99.90;;;;;;10061088;28;20106;-66
2024/01/21 14:19:28;;;;;;;3.35;2.10;;;3.60;99.90;;;;;;10061877;28;20195;-66
2024/01/21 14:24:22;;;;;;;4.55;2.22;;;3.70;99.90;;;;;;10062023;28;20049;-68
2024/01/21 14:29:30;;;;;;;6.68;2.75;;;3.70;99.90;;;;;;10061605;28;20025;-66
2024/01/21 14:34:21;;;;;;;3.35;1.88;;;3.60;99.90;;;;;;10055699;28;20037;-65
2024/01/21 14:39:12;;;;;;;3.70;1.80;;;3.70;99.90;;;;;;10061855;28;20030;-65
2024/01/21 14:44:02;;;;;;;3.75;2.38;;;3.70;99.90;;;;;;10061602;28;20206;-65
2024/01/21 14:48:53;;;;;;;4.38;2.17;;;3.80;99.90;;;;;;10060650;28;20029;-66
2024/01/21 14:53:46;;;;;;;4.22;2.38;;;3.70;99.90;;;;;;10061146;28;20061;-65
2024/01/21 14:58:36;;;;;;;3.72;2.17;;;3.80;99.90;;;;;;10060600;28;20028;-65
2024/01/21 15:03:27;;;;;;;3.80;2.05;;;3.80;99.90;;;;;;10060314;28;20511;-65
2024/01/21 15:08:17;;;;;;;3.70;2.47;;;3.80;99.90;;;;;;10060238;28;20049;-66
2024/01/21 15:13:19;;;;;;;4.15;2.58;;;3.80;99.90;;;;;;10060581;28;20037;-66
2024/01/21 15:18:09;;;;;;;6.28;2.28;;;3.80;99.90;;;;;;10060328;28;20029;-66
2024/01/21 15:23:00;;;;;;;3.75;3.17;;;3.90;99.90;;;;;;10058095;28;20057;-66
2024/01/21 15:27:50;;;;;;;6.35;3.30;;;3.90;99.90;;;;;;10057935;28;20038;-66
2024/01/21 15:32:41;;;;;;;5.15;2.00;;;3.90;99.90;;;;;;10058791;28;20164;-67
2024/01/21 15:37:32;;;;;;;4.70;2.90;;;3.80;99.90;;;;;;10058551;28;20155;-66
2024/01/21 15:42:23;;;;;;;4.72;2.83;;;3.80;99.90;;;;;;10056954;28;20032;-67
2024/01/21 15:47:14;;;;;;;7.30;3.53;;;3.90;99.90;;;;;;10058993;28;20037;-66
2024/01/21 15:52:05;;;;;;;3.42;2.40;;;3.80;99.90;;;;;;10058549;28;20034;-65
2024/01/21 15:56:55;;;;;;;4.20;2.53;;;3.80;99.90;;;;;;10058647;28;20056;-66
2024/01/21 16:01:47;;;;;;;6.13;2.72;;;3.80;99.90;;;;;;10058568;28;20033;-66
2024/01/21 16:06:37;;;;;;;4.00;2.20;;;3.80;99.90;;;;;;10058184;28;20479;-67
2024/01/21 16:11:29;;;;;;;3.70;2.95;;;3.80;99.90;;;;;;10057502;28;20105;-67
2024/01/21 16:16:19;;;;;;;6.15;2.85;;;3.70;99.90;;;;;;10057688;28;20036;-65
2024/01/21 16:21:12;;;;;;;7.47;2.80;;;3.70;99.90;;;;;;10057622;28;20586;-66
2024/01/21 16:26:02;;;;;;;7.03;2.78;;;3.80;99.90;;;;;;10057005;28;20041;-66
2024/01/21 16:30:53;;;;;;;6.35;2.50;;;3.80;99.90;;;;;;10056849;28;20022;-66
2024/01/21 16:35:44;;;;;;;7.18;3.22;;;3.80;99.90;;;;;;10054774;28;20033;-66
2024/01/21 16:40:34;;;;;;;10.65;3.60;;;3.80;99.90;;;;;;10056026;28;20120;-67
2024/01/21 16:45:29;;;;;;;6.07;3.33;;;3.80;99.90;;;;;;10051939;28;20083;-67
2024/01/21 16:50:19;;;;;;;9.45;3.80;;;3.80;99.90;;;;;;10052663;28;20029;-69
2024/01/21 16:55:11;;;;;;;7.03;3.15;;;3.80;99.90;;;;;;10055554;28;20146;-67
2024/01/21 17:00:17;;;;;;;4.13;3.00;;;3.90;99.90;;;;;;10038119;28;20103;-68
2024/01/21 17:05:07;;;;;;;5.25;2.35;;;3.90;99.90;;;;;;10055407;28;20460;-68
2024/01/21 17:09:59;;;;;;;4.88;2.60;;;4.00;99.90;;;;;;10055737;28;20568;-67
2024/01/21 17:14:50;;;;;;;6.25;2.95;;;4.00;99.90;;;;;;10056374;28;20192;-68
2024/01/21 17:19:40;;;;;;;5.43;2.58;;;4.00;99.90;;;;;;10055506;28;20232;-69
2024/01/21 17:24:31;;;;;;;5.05;3.00;;;4.00;99.90;;;;;;10055867;28;20041;-67
2024/01/21 17:29:22;;;;;;;6.00;2.63;;;4.10;99.90;;;;;;10055069;28;20025;-69
2024/01/21 17:34:12;;;;;;;5.50;3.08;;;4.10;99.90;;;;;;10055366;28;20056;-68
2024/01/21 17:39:03;;;;;;;6.38;2.60;;;4.10;99.90;;;;;;10053612;28;20128;-68
2024/01/21 17:43:54;;;;;;;5.05;2.78;;;4.10;99.90;;;;;;10054783;28;20059;-67
2024/01/21 17:48:45;;;;;;;10.55;4.70;;;4.20;99.90;;;;;;10062341;28;20571;-66
2024/01/21 17:53:36;;;;;;;9.32;4.10;;;4.20;99.90;;;;;;10063667;28;20041;-68
2024/01/21 17:58:27;;;;;;;7.25;3.92;;;4.20;99.90;;;;;;10062672;28;20029;-67
2024/01/21 18:03:17;;;;;;;3.83;2.67;;;4.30;99.90;;;;;;10062540;28;20028;-68
2024/01/21 18:08:09;;;;;;;3.90;2.85;;;4.30;99.90;;;;;;10062776;28;20034;-68
2024/01/21 18:13:00;;;;;;;4.82;2.60;;;4.40;99.90;;;;;;10061452;28;20025;-69
2024/01/21 18:17:50;;;;;;;3.53;2.40;;;4.40;99.90;;;;;;10062336;28;20044;-69
2024/01/21 18:22:41;;;;;;;5.30;2.78;;;4.50;99.90;;;;;;10062181;28;20052;-70
2024/01/21 18:27:32;;;;;;;4.25;2.60;;;4.50;99.90;;;;;;10062911;28;20033;-70
2024/01/21 18:32:25;;;;;;;5.32;3.00;;;4.50;99.90;;;;;;10059658;28;20120;-69
2024/01/21 18:37:16;;;;;;;7.00;3.70;;;4.50;99.90;;;;;;10061026;28;20041;-67
2024/01/21 18:42:07;;;;;;;5.97;3.63;;;4.60;99.90;;;;;;10061726;28;20710;-68
2024/01/21 18:46:57;;;;;;;6.22;2.85;;;4.60;99.90;;;;;;10060278;28;20111;-66
2024/01/21 18:51:48;;;;;;;5.72;2.83;;;4.60;99.90;;;;;;10059042;28;20068;-67
2024/01/21 18:56:39;;;;;;;8.40;2.78;;;4.70;99.90;;;;;;10059735;28;20044;-65
2024/01/21 19:01:30;;;;;;;4.32;2.53;;;4.70;99.90;;;;;;10053895;28;20029;-66
2024/01/21 19:06:21;;;;;;;3.70;2.15;;;4.70;99.90;;;;;;10051265;28;20041;-63
2024/01/21 19:11:12;;;;;;;6.13;2.65;;;4.80;99.90;;;;;;10057460;28;20043;-63
2024/01/21 19:16:03;;;;;;;7.22;3.45;;;4.80;99.90;;;;;;10054258;28;20048;-63
2024/01/21 19:20:53;;;;;;;5.38;2.72;;;4.80;99.90;;;;;;10056148;28;20042;-63
2024/01/21 19:25:44;;;;;;;5.25;3.03;;;4.70;99.90;;;;;;10046452;28;20136;-64
2024/01/21 19:30:35;;;;;;;9.93;3.65;;;4.80;99.90;;;;;;10046058;28;20032;-64
2024/01/21 19:35:25;;;;;;;5.15;3.35;;;4.80;99.90;;;;;;10054238;28;20087;-64
2024/01/21 19:40:16;;;;;;;5.72;3.50;;;4.80;99.90;;;;;;10054727;28;20472;-62
2024/01/21 19:45:07;;;;;;;7.00;2.92;;;4.90;99.90;;;;;;10051421;28;20036;-65
2024/01/21 19:49:58;;;;;;;9.15;3.58;;;4.90;99.90;;;;;;10046590;28;20056;-65
2024/01/21 19:54:49;;;;;;;4.57;3.72;;;4.90;99.90;;;;;;10042191;28;20471;-65
2024/01/21 19:59:40;;;;;;;5.28;2.78;;;5.00;99.90;;;;;;10041191;28;20025;-65
2024/01/21 20:04:30;;;;;;;6.90;2.92;;;5.00;99.90;;;;;;10077868;28;20034;-65
2024/01/21 20:09:21;;;;;;;4.90;2.97;;;5.10;99.90;;;;;;10046915;28;20099;-65
2024/01/21 20:14:12;;;;;;;6.25;2.92;;;5.10;99.90;;;;;;10056608;28;20033;-65
2024/01/21 20:19:03;;;;;;;6.63;3.03;;;5.10;99.90;;;;;;10047789;28;20039;-63
2024/01/21 20:23:54;;;;;;;5.47;3.65;;;5.10;99.90;;;;;;10033370;28;20048;-65
2024/01/21 20:28:44;;;;;;;7.80;3.50;;;5.20;99.90;;;;;;10077814;28;20560;-65
2024/01/21 20:33:36;;;;;;;5.18;3.30;;;5.10;99.90;;;;;;10047080;28;20045;-65
2024/01/21 20:38:27;;;;;;;12.13;3.85;;;5.20;99.90;;;;;;10037238;28;20029;-65
2024/01/21 20:43:17;;;;;;;4.50;2.97;;;5.20;99.90;;;;;;10046185;28;20037;-67
2024/01/21 20:48:08;;;;;;;4.10;3.20;;;5.20;99.90;;;;;;10052490;28;20038;-66
2024/01/21 20:52:59;;;;;;;7.25;3.90;;;5.30;99.90;;;;;;10056369;28;20030;-65
2024/01/21 20:57:49;;;;;;;5.18;3.00;;;5.20;99.90;;;;;;10056043;28;20037;-64
2024/01/21 21:02:40;;;;;;;6.00;3.58;;;5.20;99.90;;;;;;10046472;28;20064;-66
2024/01/21 21:07:30;;;;;;;6.65;3.60;;;5.20;99.90;;;;;;10050282;28;20625;-65
2024/01/21 21:12:21;;;;;;;6.63;3.33;;;5.20;99.90;;;;;;10046138;28;20018;-64
2024/01/21 21:17:12;;;;;;;4.18;2.85;;;5.20;99.90;;;;;;10047952;28;20468;-65
2024/01/21 21:22:02;;;;;;;7.75;3.53;;;5.20;99.90;;;;;;10052008;28;20048;-65
2024/01/21 21:26:53;;;;;;;4.65;3.03;;;5.20;99.90;;;;;;10044055;28;20045;-66
2024/01/21 21:31:44;;;;;;;8.55;4.43;;;5.20;99.90;;;;;;10042270;28;20038;-65
2024/01/21 21:36:34;;;;;;;12.23;5.47;;;5.10;99.90;;;;;;10050567;28;20810;-66
2024/01/21 21:41:29;;;;;;;5.40;3.20;;;5.10;99.90;;;;;;10049839;28;20037;-65
2024/01/21 21:46:19;;;;;;;4.57;2.90;;;5.10;99.90;;;;;;10054585;28;20033;-64
2024/01/21 21:51:10;;;;;;;5.28;2.53;;;5.10;99.90;;;;;;10054099;28;20032;-65
2024/01/21 21:56:01;;;;;;;4.22;2.72;;;5.10;99.90;;;;;;10056137;28;20037;-66
2024/01/21 22:00:51;;;;;;;5.43;3.05;;;5.10;99.90;;;;;;10056355;28;20456;-66
2024/01/21 22:05:42;;;;;;;4.70;2.42;;;5.10;99.90;;;;;;10054953;28;20107;-66
2024/01/21 22:10:32;;;;;;;4.68;2.28;;;5.10;99.90;;;;;;10054738;28;20030;-65
2024/01/21 22:15:23;;;;;;;3.95;2.40;;;5.10;99.90;;;;;;10055291;28;20068;-65
2024/01/21 22:20:14;;;;;;;6.07;3.45;;;5.10;99.90;;;;;;10054327;28;20124;-65
2024/01/21 22:25:05;;;;;;;4.57;2.33;;;5.10;99.90;;;;;;10054128;28;20033;-65
2024/01/21 22:29:55;;;;;;;4.57;2.55;;;5.00;99.90;;;;;;10053733;28;20033;-65
2024/01/21 22:34:46;;;;;;;5.70;2.85;;;5.00;99.90;;;;;;10092392;28;20040;-66
2024/01/21 22:39:37;;;;;;;4.82;2.95;;;5.00;99.90;;;;;;10061665;28;20025;-65
2024/01/21 22:44:27;;;;;;;7.45;2.80;;;5.00;99.90;;;;;;10061901;28;20041;-66
2024/01/21 22:49:18;;;;;;;6.25;2.55;;;5.00;99.90;;;;;;10062003;28;20069;-66
2024/01/21 22:54:09;;;;;;;3.83;2.92;;;5.00;99.90;;;;;;10061242;28;20030;-65
2024/01/21 22:58:59;;;;;;;4.80;2.17;;;5.00;99.90;;;;;;10045655;28;20037;-65
2024/01/21 23:03:50;;;;;;;4.30;2.53;;;5.10;99.90;;;;;;10030146;28;20022;-64
2024/01/21 23:08:41;;;;;;;4.13;2.38;;;5.10;99.90;;;;;;10031001;28;20042;-64
2024/01/21 23:13:31;;;;;;;6.90;2.83;;;5.00;99.90;;;;;;10029181;28;20037;-66
2024/01/21 23:18:22;;;;;;;6.35;3.15;;;5.00;99.90;;;;;;10036311;28;20052;-66
2024/01/21 23:23:13;;;;;;;6.78;3.20;;;4.90;99.90;;;;;;10049826;28;20581;-65
2024/01/21 23:28:04;;;;;;;6.45;2.85;;;4.90;99.90;;;;;;10068791;28;20031;-66
2024/01/21 23:32:54;;;;;;;3.95;2.72;;;4.80;99.90;;;;;;10075182;28;20037;-65
2024/01/21 23:37:45;;;;;;;4.97;3.13;;;4.90;99.90;;;;;;10061461;28;20506;-65
2024/01/21 23:42:36;;;;;;;8.07;2.75;;;4.80;99.90;;;;;;10077414;28;20034;-64
2024/01/21 23:47:26;;;;;;;4.28;2.38;;;4.80;99.90;;;;;;10070877;28;20132;-66
2024/01/21 23:52:17;;;;;;;3.38;2.30;;;4.80;99.90;;;;;;10059220;28;20033;-65
2024/01/21 23:57:08;;;;;;;5.47;2.47;;;4.80;99.90;;;;;;10057489;28;20108;-65
